sensor_id;sensor_type;location;lat;lon;timestamp;P1;durP1;ratioP1;P2;durP2;ratioP2
1174;SDS011;576;48.418;10.074;2022-07-29T00:01:39;6.10;;;3.83;;
1174;SDS011;576;48.418;10.074;2022-07-29T00:04:08;5.20;;;4.80;;
1174;SDS011;576;48.418;10.074;2022-07-29T00:06:37;4.40;;;4.00;;
1174;SDS011;576;48.418;10.074;2022-07-29T00:09:05;4.67;;;4.27;;
1174;SDS011;576;48.418;10.074;2022-07-29T00:11:35;4.60;;;4.27;;
1174;SDS011;576;48.418;10.074;2022-07-29T00:14:04;4.00;;;3.70;;
1174;SDS011;576;48.418;10.074;2022-07-29T00:16:32;4.83;;;4.50;;
1174;SDS011;576;48.418;10.074;2022-07-29T00:19:00;3.60;;;3.40;;
1174;SDS011;576;48.418;10.074;2022-07-29T00:21:29;4.47;;;4.20;;
1174;SDS011;576;48.418;10.074;2022-07-29T00:23:57;4.33;;;3.97;;
1174;SDS011;576;48.418;10.074;2022-07-29T00:26:25;3.57;;;3.37;;
1174;SDS011;576;48.418;10.074;2022-07-29T00:28:59;4.93;;;4.53;;
1174;SDS011;576;48.418;10.074;2022-07-29T00:31:48;4.70;;;4.30;;
1174;SDS011;576;48.418;10.074;2022-07-29T00:34:16;4.27;;;3.87;;
1174;SDS011;576;48.418;10.074;2022-07-29T00:37:02;9.70;;;4.87;;
1174;SDS011;576;48.418;10.074;2022-07-29T00:39:33;4.07;;;3.77;;
1174;SDS011;576;48.418;10.074;2022-07-29T00:42:01;5.90;;;3.80;;
1174;SDS011;576;48.418;10.074;2022-07-29T00:44:32;3.90;;;3.67;;
1174;SDS011;576;48.418;10.074;2022-07-29T00:47:04;4.10;;;3.70;;
1174;SDS011;576;48.418;10.074;2022-07-29T00:49:33;3.97;;;3.67;;
1174;SDS011;576;48.418;10.074;2022-07-29T00:52:02;4.23;;;3.90;;
1174;SDS011;576;48.418;10.074;2022-07-29T00:54:31;3.97;;;3.77;;
1174;SDS011;576;48.418;10.074;2022-07-29T00:57:00;4.07;;;3.77;;
1174;SDS011;576;48.418;10.074;2022-07-29T00:59:33;4.70;;;4.30;;
1174;SDS011;576;48.418;10.074;2022-07-29T01:02:01;3.67;;;3.43;;
1174;SDS011;576;48.418;10.074;2022-07-29T01:04:30;4.30;;;3.90;;
1174;SDS011;576;48.418;10.074;2022-07-29T01:06:59;4.23;;;3.87;;
1174;SDS011;576;48.418;10.074;2022-07-29T01:09:29;3.90;;;3.70;;
1174;SDS011;576;48.418;10.074;2022-07-29T01:12:12;3.90;;;3.60;;
1174;SDS011;576;48.418;10.074;2022-07-29T01:14:45;4.00;;;3.70;;
1174;SDS011;576;48.418;10.074;2022-07-29T01:17:17;4.00;;;3.80;;
1174;SDS011;576;48.418;10.074;2022-07-29T01:19:49;3.90;;;3.60;;
1174;SDS011;576;48.418;10.074;2022-07-29T01:22:27;4.83;;;4.50;;
1174;SDS011;576;48.418;10.074;2022-07-29T01:25:10;3.80;;;3.60;;
1174;SDS011;576;48.418;10.074;2022-07-29T01:27:51;3.30;;;3.10;;
1174;SDS011;576;48.418;10.074;2022-07-29T01:30:36;4.80;;;4.43;;
1174;SDS011;576;48.418;10.074;2022-07-29T01:33:11;4.50;;;3.60;;
1174;SDS011;576;48.418;10.074;2022-07-29T01:35:57;3.90;;;3.70;;
1174;SDS011;576;48.418;10.074;2022-07-29T01:38:32;4.67;;;3.80;;
1174;SDS011;576;48.418;10.074;2022-07-29T01:41:07;3.60;;;3.30;;
1174;SDS011;576;48.418;10.074;2022-07-29T01:43:39;3.63;;;3.43;;
1174;SDS011;576;48.418;10.074;2022-07-29T01:46:19;3.90;;;3.60;;
1174;SDS011;576;48.418;10.074;2022-07-29T01:48:56;4.20;;;3.80;;
1174;SDS011;576;48.418;10.074;2022-07-29T01:51:30;3.50;;;3.30;;
1174;SDS011;576;48.418;10.074;2022-07-29T01:54:04;4.00;;;3.70;;
1174;SDS011;576;48.418;10.074;2022-07-29T01:56:38;3.50;;;3.20;;
1174;SDS011;576;48.418;10.074;2022-07-29T01:59:08;3.90;;;3.60;;
1174;SDS011;576;48.418;10.074;2022-07-29T02:01:39;4.80;;;4.40;;
1174;SDS011;576;48.418;10.074;2022-07-29T02:04:10;4.00;;;3.80;;
1174;SDS011;576;48.418;10.074;2022-07-29T02:06:57;3.90;;;3.60;;
1174;SDS011;576;48.418;10.074;2022-07-29T02:09:29;3.40;;;3.20;;
1174;SDS011;576;48.418;10.074;2022-07-29T02:11:59;3.73;;;3.53;;
1174;SDS011;576;48.418;10.074;2022-07-29T02:14:30;4.30;;;3.83;;
1174;SDS011;576;48.418;10.074;2022-07-29T02:17:04;4.00;;;3.80;;
1174;SDS011;576;48.418;10.074;2022-07-29T02:19:33;4.17;;;3.77;;
1174;SDS011;576;48.418;10.074;2022-07-29T02:22:04;4.63;;;4.33;;
1174;SDS011;576;48.418;10.074;2022-07-29T02:24:34;3.80;;;3.50;;
1174;SDS011;576;48.418;10.074;2022-07-29T02:27:04;4.43;;;3.57;;
1174;SDS011;576;48.418;10.074;2022-07-29T02:29:32;3.90;;;3.60;;
1174;SDS011;576;48.418;10.074;2022-07-29T02:32:04;3.57;;;3.37;;
1174;SDS011;576;48.418;10.074;2022-07-29T02:34:34;3.70;;;3.50;;
1174;SDS011;576;48.418;10.074;2022-07-29T02:37:04;3.47;;;3.27;;
1174;SDS011;576;48.418;10.074;2022-07-29T02:39:34;4.23;;;3.93;;
1174;SDS011;576;48.418;10.074;2022-07-29T02:42:05;3.57;;;3.37;;
1174;SDS011;576;48.418;10.074;2022-07-29T02:44:35;3.80;;;3.50;;
1174;SDS011;576;48.418;10.074;2022-07-29T02:47:07;4.10;;;3.80;;
1174;SDS011;576;48.418;10.074;2022-07-29T02:49:44;3.90;;;3.70;;
1174;SDS011;576;48.418;10.074;2022-07-29T02:52:20;4.03;;;3.83;;
1174;SDS011;576;48.418;10.074;2022-07-29T02:54:53;3.07;;;2.77;;
1174;SDS011;576;48.418;10.074;2022-07-29T02:57:28;3.20;;;3.00;;
1174;SDS011;576;48.418;10.074;2022-07-29T03:00:02;4.00;;;3.80;;
1174;SDS011;576;48.418;10.074;2022-07-29T03:02:35;3.80;;;3.50;;
1174;SDS011;576;48.418;10.074;2022-07-29T03:05:08;3.27;;;3.07;;
1174;SDS011;576;48.418;10.074;2022-07-29T03:07:43;4.63;;;3.70;;
1174;SDS011;576;48.418;10.074;2022-07-29T03:10:14;3.97;;;3.77;;
1174;SDS011;576;48.418;10.074;2022-07-29T03:12:43;4.03;;;3.73;;
1174;SDS011;576;48.418;10.074;2022-07-29T03:15:12;4.60;;;4.30;;
1174;SDS011;576;48.418;10.074;2022-07-29T03:17:42;4.80;;;4.50;;
1174;SDS011;576;48.418;10.074;2022-07-29T03:20:11;3.80;;;3.57;;
1174;SDS011;576;48.418;10.074;2022-07-29T03:22:40;4.00;;;3.80;;
1174;SDS011;576;48.418;10.074;2022-07-29T03:25:10;3.70;;;3.50;;
1174;SDS011;576;48.418;10.074;2022-07-29T03:27:40;3.47;;;3.27;;
1174;SDS011;576;48.418;10.074;2022-07-29T03:30:09;3.43;;;3.23;;
1174;SDS011;576;48.418;10.074;2022-07-29T03:32:49;3.53;;;3.30;;
1174;SDS011;576;48.418;10.074;2022-07-29T03:35:18;3.30;;;3.10;;
1174;SDS011;576;48.418;10.074;2022-07-29T03:37:47;4.10;;;3.90;;
1174;SDS011;576;48.418;10.074;2022-07-29T03:40:16;3.60;;;3.40;;
1174;SDS011;576;48.418;10.074;2022-07-29T03:42:49;3.87;;;3.67;;
1174;SDS011;576;48.418;10.074;2022-07-29T03:45:19;3.63;;;3.43;;
1174;SDS011;576;48.418;10.074;2022-07-29T03:47:51;3.33;;;3.13;;
1174;SDS011;576;48.418;10.074;2022-07-29T03:50:26;3.77;;;3.57;;
1174;SDS011;576;48.418;10.074;2022-07-29T03:52:56;3.50;;;3.30;;
1174;SDS011;576;48.418;10.074;2022-07-29T03:55:24;3.50;;;3.30;;
1174;SDS011;576;48.418;10.074;2022-07-29T03:57:53;3.43;;;3.20;;
1174;SDS011;576;48.418;10.074;2022-07-29T04:00:24;3.53;;;3.33;;
1174;SDS011;576;48.418;10.074;2022-07-29T04:02:55;3.17;;;3.07;;
1174;SDS011;576;48.418;10.074;2022-07-29T04:05:24;3.87;;;3.57;;
1174;SDS011;576;48.418;10.074;2022-07-29T04:07:52;3.27;;;3.07;;
1174;SDS011;576;48.418;10.074;2022-07-29T04:10:20;3.50;;;3.30;;
1174;SDS011;576;48.418;10.074;2022-07-29T04:12:57;4.10;;;3.90;;
1174;SDS011;576;48.418;10.074;2022-07-29T04:15:25;4.23;;;3.80;;
1174;SDS011;576;48.418;10.074;2022-07-29T04:17:58;3.27;;;3.07;;
1174;SDS011;576;48.418;10.074;2022-07-29T04:20:27;3.50;;;3.30;;
1174;SDS011;576;48.418;10.074;2022-07-29T04:22:55;3.80;;;3.50;;
1174;SDS011;576;48.418;10.074;2022-07-29T04:25:23;3.63;;;3.30;;
1174;SDS011;576;48.418;10.074;2022-07-29T04:27:51;3.50;;;3.30;;
1174;SDS011;576;48.418;10.074;2022-07-29T04:30:29;3.50;;;3.30;;
1174;SDS011;576;48.418;10.074;2022-07-29T04:33:00;3.87;;;3.57;;
1174;SDS011;576;48.418;10.074;2022-07-29T04:35:29;4.40;;;4.10;;
1174;SDS011;576;48.418;10.074;2022-07-29T04:38:04;3.70;;;3.50;;
1174;SDS011;576;48.418;10.074;2022-07-29T04:40:41;3.40;;;3.20;;
1174;SDS011;576;48.418;10.074;2022-07-29T04:43:09;3.70;;;3.50;;
1174;SDS011;576;48.418;10.074;2022-07-29T04:45:40;3.27;;;3.00;;
1174;SDS011;576;48.418;10.074;2022-07-29T04:48:10;4.10;;;3.80;;
1174;SDS011;576;48.418;10.074;2022-07-29T04:50:38;3.80;;;3.60;;
1174;SDS011;576;48.418;10.074;2022-07-29T04:53:07;7.33;;;6.73;;
1174;SDS011;576;48.418;10.074;2022-07-29T04:55:35;6.40;;;5.37;;
1174;SDS011;576;48.418;10.074;2022-07-29T04:58:04;6.60;;;6.00;;
1174;SDS011;576;48.418;10.074;2022-07-29T05:00:33;4.80;;;4.40;;
1174;SDS011;576;48.418;10.074;2022-07-29T05:03:02;4.80;;;4.50;;
1174;SDS011;576;48.418;10.074;2022-07-29T05:05:31;6.73;;;5.97;;
1174;SDS011;576;48.418;10.074;2022-07-29T05:08:00;3.77;;;3.57;;
1174;SDS011;576;48.418;10.074;2022-07-29T05:10:28;3.53;;;3.33;;
1174;SDS011;576;48.418;10.074;2022-07-29T05:12:56;4.80;;;4.40;;
1174;SDS011;576;48.418;10.074;2022-07-29T05:15:24;4.17;;;3.53;;
1174;SDS011;576;48.418;10.074;2022-07-29T05:17:53;3.60;;;3.30;;
1174;SDS011;576;48.418;10.074;2022-07-29T05:20:21;3.47;;;3.27;;
1174;SDS011;576;48.418;10.074;2022-07-29T05:22:54;3.20;;;3.00;;
1174;SDS011;576;48.418;10.074;2022-07-29T05:25:22;3.00;;;2.80;;
1174;SDS011;576;48.418;10.074;2022-07-29T05:28:13;3.80;;;3.50;;
1174;SDS011;576;48.418;10.074;2022-07-29T05:30:42;3.40;;;3.20;;
1174;SDS011;576;48.418;10.074;2022-07-29T05:33:11;3.40;;;3.20;;
1174;SDS011;576;48.418;10.074;2022-07-29T05:35:59;4.00;;;3.70;;
1174;SDS011;576;48.418;10.074;2022-07-29T05:38:28;2.87;;;2.70;;
1174;SDS011;576;48.418;10.074;2022-07-29T05:40:57;3.03;;;2.80;;
1174;SDS011;576;48.418;10.074;2022-07-29T05:43:25;4.40;;;4.10;;
1174;SDS011;576;48.418;10.074;2022-07-29T05:45:54;3.20;;;3.00;;
1174;SDS011;576;48.418;10.074;2022-07-29T05:48:22;3.10;;;3.00;;
1174;SDS011;576;48.418;10.074;2022-07-29T05:50:51;3.50;;;3.30;;
1174;SDS011;576;48.418;10.074;2022-07-29T05:53:19;3.20;;;3.00;;
1174;SDS011;576;48.418;10.074;2022-07-29T05:55:49;3.17;;;2.97;;
1174;SDS011;576;48.418;10.074;2022-07-29T05:58:18;3.53;;;3.23;;
1174;SDS011;576;48.418;10.074;2022-07-29T06:00:46;3.50;;;3.20;;
1174;SDS011;576;48.418;10.074;2022-07-29T06:03:15;3.90;;;3.60;;
1174;SDS011;576;48.418;10.074;2022-07-29T06:05:43;2.60;;;2.50;;
1174;SDS011;576;48.418;10.074;2022-07-29T06:08:11;3.00;;;2.80;;
1174;SDS011;576;48.418;10.074;2022-07-29T06:10:39;3.20;;;3.00;;
1174;SDS011;576;48.418;10.074;2022-07-29T06:13:09;3.30;;;3.10;;
1174;SDS011;576;48.418;10.074;2022-07-29T06:15:37;4.17;;;3.77;;
1174;SDS011;576;48.418;10.074;2022-07-29T06:18:05;3.63;;;3.43;;
1174;SDS011;576;48.418;10.074;2022-07-29T06:20:36;5.00;;;4.60;;
1174;SDS011;576;48.418;10.074;2022-07-29T06:23:04;5.63;;;4.83;;
1174;SDS011;576;48.418;10.074;2022-07-29T06:25:32;6.53;;;6.03;;
1174;SDS011;576;48.418;10.074;2022-07-29T06:28:03;6.23;;;5.70;;
1174;SDS011;576;48.418;10.074;2022-07-29T06:30:33;5.50;;;5.10;;
1174;SDS011;576;48.418;10.074;2022-07-29T06:33:01;5.80;;;5.40;;
1174;SDS011;576;48.418;10.074;2022-07-29T06:35:30;6.30;;;5.80;;
1174;SDS011;576;48.418;10.074;2022-07-29T06:38:07;6.07;;;5.67;;
1174;SDS011;576;48.418;10.074;2022-07-29T06:40:56;5.30;;;4.90;;
1174;SDS011;576;48.418;10.074;2022-07-29T06:43:28;8.07;;;7.37;;
1174;SDS011;576;48.418;10.074;2022-07-29T06:46:00;6.70;;;6.20;;
1174;SDS011;576;48.418;10.074;2022-07-29T06:48:36;6.80;;;6.30;;
1174;SDS011;576;48.418;10.074;2022-07-29T06:51:06;6.37;;;5.80;;
1174;SDS011;576;48.418;10.074;2022-07-29T06:53:34;6.80;;;6.30;;
1174;SDS011;576;48.418;10.074;2022-07-29T06:56:06;10.30;;;6.87;;
1174;SDS011;576;48.418;10.074;2022-07-29T06:58:35;7.13;;;6.63;;
1174;SDS011;576;48.418;10.074;2022-07-29T07:01:08;7.47;;;6.77;;
1174;SDS011;576;48.418;10.074;2022-07-29T07:03:39;6.43;;;6.00;;
1174;SDS011;576;48.418;10.074;2022-07-29T07:06:08;5.93;;;5.53;;
1174;SDS011;576;48.418;10.074;2022-07-29T07:08:40;7.70;;;6.83;;
1174;SDS011;576;48.418;10.074;2022-07-29T07:11:08;5.30;;;4.90;;
1174;SDS011;576;48.418;10.074;2022-07-29T07:13:37;6.87;;;6.17;;
1174;SDS011;576;48.418;10.074;2022-07-29T07:16:05;5.80;;;5.40;;
1174;SDS011;576;48.418;10.074;2022-07-29T07:18:35;5.33;;;4.93;;
1174;SDS011;576;48.418;10.074;2022-07-29T07:21:06;5.77;;;5.30;;
1174;SDS011;576;48.418;10.074;2022-07-29T07:23:34;6.53;;;5.97;;
1174;SDS011;576;48.418;10.074;2022-07-29T07:26:05;4.70;;;4.30;;
1174;SDS011;576;48.418;10.074;2022-07-29T07:28:34;4.73;;;4.33;;
1174;SDS011;576;48.418;10.074;2022-07-29T07:31:05;5.20;;;4.90;;
1174;SDS011;576;48.418;10.074;2022-07-29T07:33:35;5.70;;;5.30;;
1174;SDS011;576;48.418;10.074;2022-07-29T07:36:06;6.37;;;5.87;;
1174;SDS011;576;48.418;10.074;2022-07-29T07:38:34;7.07;;;6.47;;
1174;SDS011;576;48.418;10.074;2022-07-29T07:41:05;3.70;;;3.40;;
1174;SDS011;576;48.418;10.074;2022-07-29T07:43:33;6.17;;;5.67;;
1174;SDS011;576;48.418;10.074;2022-07-29T07:46:02;3.67;;;3.37;;
1174;SDS011;576;48.418;10.074;2022-07-29T07:48:36;5.67;;;5.20;;
1174;SDS011;576;48.418;10.074;2022-07-29T07:51:07;5.33;;;5.03;;
1174;SDS011;576;48.418;10.074;2022-07-29T07:53:35;6.73;;;5.70;;
1174;SDS011;576;48.418;10.074;2022-07-29T07:56:07;5.27;;;4.87;;
1174;SDS011;576;48.418;10.074;2022-07-29T07:58:37;7.40;;;5.00;;
1174;SDS011;576;48.418;10.074;2022-07-29T08:01:06;4.57;;;4.20;;
1174;SDS011;576;48.418;10.074;2022-07-29T08:03:36;4.83;;;4.43;;
1174;SDS011;576;48.418;10.074;2022-07-29T08:06:05;5.70;;;5.20;;
1174;SDS011;576;48.418;10.074;2022-07-29T08:08:33;5.70;;;4.43;;
1174;SDS011;576;48.418;10.074;2022-07-29T08:11:09;4.83;;;4.53;;
1174;SDS011;576;48.418;10.074;2022-07-29T08:13:37;4.57;;;4.17;;
1174;SDS011;576;48.418;10.074;2022-07-29T08:16:06;4.97;;;4.57;;
1174;SDS011;576;48.418;10.074;2022-07-29T08:18:43;8.73;;;5.00;;
1174;SDS011;576;48.418;10.074;2022-07-29T08:21:13;6.20;;;4.60;;
1174;SDS011;576;48.418;10.074;2022-07-29T08:23:42;5.47;;;5.07;;
1174;SDS011;576;48.418;10.074;2022-07-29T08:26:27;5.17;;;3.93;;
1174;SDS011;576;48.418;10.074;2022-07-29T08:28:55;4.80;;;4.50;;
1174;SDS011;576;48.418;10.074;2022-07-29T08:31:23;4.07;;;3.77;;
1174;SDS011;576;48.418;10.074;2022-07-29T08:33:53;7.90;;;7.03;;
1174;SDS011;576;48.418;10.074;2022-07-29T08:36:22;6.30;;;4.93;;
1174;SDS011;576;48.418;10.074;2022-07-29T08:38:51;4.83;;;4.33;;
1174;SDS011;576;48.418;10.074;2022-07-29T08:41:19;5.40;;;4.90;;
1174;SDS011;576;48.418;10.074;2022-07-29T08:43:47;6.53;;;5.90;;
1174;SDS011;576;48.418;10.074;2022-07-29T08:46:17;7.63;;;7.03;;
1174;SDS011;576;48.418;10.074;2022-07-29T08:48:46;7.87;;;7.27;;
1174;SDS011;576;48.418;10.074;2022-07-29T08:51:16;5.40;;;4.90;;
1174;SDS011;576;48.418;10.074;2022-07-29T08:53:46;5.50;;;4.33;;
1174;SDS011;576;48.418;10.074;2022-07-29T08:56:16;5.73;;;5.30;;
1174;SDS011;576;48.418;10.074;2022-07-29T08:58:46;5.63;;;4.70;;
1174;SDS011;576;48.418;10.074;2022-07-29T09:01:21;4.43;;;3.93;;
1174;SDS011;576;48.418;10.074;2022-07-29T09:04:03;4.77;;;4.47;;
1174;SDS011;576;48.418;10.074;2022-07-29T09:06:34;4.50;;;4.20;;
1174;SDS011;576;48.418;10.074;2022-07-29T09:09:07;3.97;;;3.67;;
1174;SDS011;576;48.418;10.074;2022-07-29T09:11:35;3.63;;;3.33;;
1174;SDS011;576;48.418;10.074;2022-07-29T09:14:04;4.90;;;4.40;;
1174;SDS011;576;48.418;10.074;2022-07-29T09:16:45;5.17;;;4.77;;
1174;SDS011;576;48.418;10.074;2022-07-29T09:19:20;4.63;;;4.13;;
1174;SDS011;576;48.418;10.074;2022-07-29T09:21:51;5.17;;;4.67;;
1174;SDS011;576;48.418;10.074;2022-07-29T09:24:36;3.40;;;3.10;;
1174;SDS011;576;48.418;10.074;2022-07-29T09:27:07;5.00;;;4.70;;
1174;SDS011;576;48.418;10.074;2022-07-29T09:29:38;4.30;;;4.00;;
1174;SDS011;576;48.418;10.074;2022-07-29T09:32:08;5.87;;;5.37;;
1174;SDS011;576;48.418;10.074;2022-07-29T09:34:37;5.80;;;4.73;;
1174;SDS011;576;48.418;10.074;2022-07-29T09:37:07;4.27;;;3.97;;
1174;SDS011;576;48.418;10.074;2022-07-29T09:39:36;5.27;;;4.80;;
1174;SDS011;576;48.418;10.074;2022-07-29T09:42:12;4.67;;;4.27;;
1174;SDS011;576;48.418;10.074;2022-07-29T09:44:42;5.40;;;5.00;;
1174;SDS011;576;48.418;10.074;2022-07-29T09:47:12;5.03;;;4.60;;
1174;SDS011;576;48.418;10.074;2022-07-29T09:49:50;6.43;;;5.83;;
1174;SDS011;576;48.418;10.074;2022-07-29T09:52:22;5.67;;;5.23;;
1174;SDS011;576;48.418;10.074;2022-07-29T09:54:50;7.20;;;6.57;;
1174;SDS011;576;48.418;10.074;2022-07-29T09:57:24;5.93;;;5.43;;
1174;SDS011;576;48.418;10.074;2022-07-29T09:59:57;5.83;;;5.23;;
1174;SDS011;576;48.418;10.074;2022-07-29T10:02:29;5.57;;;5.17;;
1174;SDS011;576;48.418;10.074;2022-07-29T10:05:26;4.00;;;3.70;;
1174;SDS011;576;48.418;10.074;2022-07-29T10:08:02;5.37;;;5.00;;
1174;SDS011;576;48.418;10.074;2022-07-29T10:10:31;4.63;;;4.33;;
1174;SDS011;576;48.418;10.074;2022-07-29T10:13:03;4.60;;;4.30;;
1174;SDS011;576;48.418;10.074;2022-07-29T10:15:41;5.73;;;4.77;;
1174;SDS011;576;48.418;10.074;2022-07-29T10:18:13;5.60;;;5.20;;
1174;SDS011;576;48.418;10.074;2022-07-29T10:20:45;4.87;;;4.57;;
1174;SDS011;576;48.418;10.074;2022-07-29T10:23:13;4.30;;;4.10;;
1174;SDS011;576;48.418;10.074;2022-07-29T10:25:42;4.73;;;4.33;;
1174;SDS011;576;48.418;10.074;2022-07-29T10:28:12;5.27;;;4.87;;
1174;SDS011;576;48.418;10.074;2022-07-29T10:30:42;4.10;;;3.90;;
1174;SDS011;576;48.418;10.074;2022-07-29T10:33:18;6.40;;;5.10;;
1174;SDS011;576;48.418;10.074;2022-07-29T10:38:52;4.37;;;3.97;;
1174;SDS011;576;48.418;10.074;2022-07-29T10:41:34;4.50;;;4.20;;
1174;SDS011;576;48.418;10.074;2022-07-29T10:44:14;5.00;;;4.60;;
1174;SDS011;576;48.418;10.074;2022-07-29T10:46:49;4.10;;;3.90;;
1174;SDS011;576;48.418;10.074;2022-07-29T10:49:19;4.53;;;4.13;;
1174;SDS011;576;48.418;10.074;2022-07-29T10:52:04;4.47;;;4.17;;
1174;SDS011;576;48.418;10.074;2022-07-29T10:54:37;4.30;;;3.97;;
1174;SDS011;576;48.418;10.074;2022-07-29T10:57:14;4.67;;;4.30;;
1174;SDS011;576;48.418;10.074;2022-07-29T10:59:46;3.73;;;3.53;;
1174;SDS011;576;48.418;10.074;2022-07-29T11:05:11;3.57;;;3.37;;
1174;SDS011;576;48.418;10.074;2022-07-29T11:10:52;5.23;;;3.83;;
1174;SDS011;576;48.418;10.074;2022-07-29T11:13:45;4.17;;;3.87;;
1174;SDS011;576;48.418;10.074;2022-07-29T11:16:15;4.40;;;4.10;;
1174;SDS011;576;48.418;10.074;2022-07-29T11:21:56;4.30;;;4.00;;
1174;SDS011;576;48.418;10.074;2022-07-29T11:24:27;4.53;;;4.20;;
1174;SDS011;576;48.418;10.074;2022-07-29T11:27:07;4.37;;;4.07;;
1174;SDS011;576;48.418;10.074;2022-07-29T11:29:49;4.30;;;4.10;;
1174;SDS011;576;48.418;10.074;2022-07-29T11:32:19;4.33;;;3.90;;
1174;SDS011;576;48.418;10.074;2022-07-29T11:34:49;3.87;;;3.67;;
1174;SDS011;576;48.418;10.074;2022-07-29T11:37:44;6.20;;;4.30;;
1174;SDS011;576;48.418;10.074;2022-07-29T11:40:24;4.17;;;3.77;;
1174;SDS011;576;48.418;10.074;2022-07-29T11:42:52;3.77;;;3.57;;
1174;SDS011;576;48.418;10.074;2022-07-29T11:45:24;4.97;;;4.57;;
1174;SDS011;576;48.418;10.074;2022-07-29T11:48:14;4.67;;;4.37;;
1174;SDS011;576;48.418;10.074;2022-07-29T11:50:57;4.80;;;3.80;;
1174;SDS011;576;48.418;10.074;2022-07-29T11:53:26;4.97;;;4.57;;
1174;SDS011;576;48.418;10.074;2022-07-29T11:56:00;3.70;;;3.40;;
1174;SDS011;576;48.418;10.074;2022-07-29T11:58:41;4.40;;;4.10;;
1174;SDS011;576;48.418;10.074;2022-07-29T12:01:12;3.63;;;3.40;;
1174;SDS011;576;48.418;10.074;2022-07-29T12:03:41;4.03;;;3.80;;
1174;SDS011;576;48.418;10.074;2022-07-29T12:06:13;3.47;;;3.20;;
1174;SDS011;576;48.418;10.074;2022-07-29T12:08:43;3.90;;;3.60;;
1174;SDS011;576;48.418;10.074;2022-07-29T12:11:17;4.00;;;3.70;;
1174;SDS011;576;48.418;10.074;2022-07-29T12:13:48;5.57;;;4.43;;
1174;SDS011;576;48.418;10.074;2022-07-29T12:16:17;3.80;;;3.53;;
1174;SDS011;576;48.418;10.074;2022-07-29T12:18:55;5.63;;;5.13;;
1174;SDS011;576;48.418;10.074;2022-07-29T12:21:25;3.53;;;3.33;;
1174;SDS011;576;48.418;10.074;2022-07-29T12:23:54;3.87;;;3.60;;
1174;SDS011;576;48.418;10.074;2022-07-29T12:26:36;3.90;;;3.60;;
1174;SDS011;576;48.418;10.074;2022-07-29T12:29:17;3.70;;;3.40;;
1174;SDS011;576;48.418;10.074;2022-07-29T12:32:01;4.00;;;3.27;;
1174;SDS011;576;48.418;10.074;2022-07-29T12:34:40;4.03;;;3.73;;
1174;SDS011;576;48.418;10.074;2022-07-29T12:37:08;4.30;;;4.00;;
1174;SDS011;576;48.418;10.074;2022-07-29T12:39:37;4.30;;;4.00;;
1174;SDS011;576;48.418;10.074;2022-07-29T12:42:11;4.37;;;4.00;;
1174;SDS011;576;48.418;10.074;2022-07-29T12:44:44;4.03;;;3.63;;
1174;SDS011;576;48.418;10.074;2022-07-29T12:47:14;5.53;;;3.20;;
1174;SDS011;576;48.418;10.074;2022-07-29T12:49:42;3.30;;;3.10;;
1174;SDS011;576;48.418;10.074;2022-07-29T12:52:28;4.70;;;4.40;;
1174;SDS011;576;48.418;10.074;2022-07-29T12:54:57;4.27;;;3.97;;
1174;SDS011;576;48.418;10.074;2022-07-29T12:57:27;3.77;;;3.57;;
1174;SDS011;576;48.418;10.074;2022-07-29T12:59:59;4.77;;;4.47;;
1174;SDS011;576;48.418;10.074;2022-07-29T13:02:29;5.13;;;4.60;;
1174;SDS011;576;48.418;10.074;2022-07-29T13:04:59;4.73;;;4.43;;
1174;SDS011;576;48.418;10.074;2022-07-29T13:07:28;4.50;;;4.30;;
1174;SDS011;576;48.418;10.074;2022-07-29T13:10:19;2.90;;;2.70;;
1174;SDS011;576;48.418;10.074;2022-07-29T13:13:06;3.30;;;3.03;;
1174;SDS011;576;48.418;10.074;2022-07-29T13:15:36;3.27;;;3.07;;
1174;SDS011;576;48.418;10.074;2022-07-29T13:18:25;3.43;;;3.23;;
1174;SDS011;576;48.418;10.074;2022-07-29T13:20:56;2.80;;;2.60;;
1174;SDS011;576;48.418;10.074;2022-07-29T13:23:24;3.47;;;3.20;;
1174;SDS011;576;48.418;10.074;2022-07-29T13:25:52;3.73;;;3.53;;
1174;SDS011;576;48.418;10.074;2022-07-29T13:28:21;3.73;;;3.53;;
1174;SDS011;576;48.418;10.074;2022-07-29T13:30:49;3.20;;;3.00;;
1174;SDS011;576;48.418;10.074;2022-07-29T13:33:17;2.70;;;2.50;;
1174;SDS011;576;48.418;10.074;2022-07-29T13:35:47;3.83;;;3.53;;
1174;SDS011;576;48.418;10.074;2022-07-29T13:38:15;3.10;;;2.90;;
1174;SDS011;576;48.418;10.074;2022-07-29T13:40:44;3.13;;;2.93;;
1174;SDS011;576;48.418;10.074;2022-07-29T13:43:12;3.60;;;3.40;;
1174;SDS011;576;48.418;10.074;2022-07-29T13:45:40;3.97;;;3.67;;
1174;SDS011;576;48.418;10.074;2022-07-29T13:48:08;4.03;;;3.53;;
1174;SDS011;576;48.418;10.074;2022-07-29T13:50:37;4.47;;;3.90;;
1174;SDS011;576;48.418;10.074;2022-07-29T13:53:07;7.10;;;4.47;;
1174;SDS011;576;48.418;10.074;2022-07-29T13:55:43;4.13;;;3.73;;
1174;SDS011;576;48.418;10.074;2022-07-29T13:58:13;5.43;;;3.97;;
1174;SDS011;576;48.418;10.074;2022-07-29T14:00:41;6.00;;;4.20;;
1174;SDS011;576;48.418;10.074;2022-07-29T14:03:09;4.33;;;3.93;;
1174;SDS011;576;48.418;10.074;2022-07-29T14:05:38;4.03;;;3.20;;
1174;SDS011;576;48.418;10.074;2022-07-29T14:08:07;4.67;;;3.70;;
1174;SDS011;576;48.418;10.074;2022-07-29T14:10:36;4.40;;;3.40;;
1174;SDS011;576;48.418;10.074;2022-07-29T14:13:04;4.93;;;2.53;;
1174;SDS011;576;48.418;10.074;2022-07-29T14:15:50;3.73;;;3.10;;
1174;SDS011;576;48.418;10.074;2022-07-29T14:18:19;3.70;;;3.40;;
1174;SDS011;576;48.418;10.074;2022-07-29T14:20:47;5.13;;;3.20;;
1174;SDS011;576;48.418;10.074;2022-07-29T14:23:17;3.73;;;3.17;;
1174;SDS011;576;48.418;10.074;2022-07-29T14:25:45;2.80;;;2.40;;
1174;SDS011;576;48.418;10.074;2022-07-29T14:28:14;2.27;;;2.17;;
1174;SDS011;576;48.418;10.074;2022-07-29T14:30:43;2.80;;;2.60;;
1174;SDS011;576;48.418;10.074;2022-07-29T14:33:11;3.30;;;2.90;;
1174;SDS011;576;48.418;10.074;2022-07-29T14:35:40;2.60;;;2.40;;
1174;SDS011;576;48.418;10.074;2022-07-29T14:38:08;4.13;;;3.30;;
1174;SDS011;576;48.418;10.074;2022-07-29T14:40:38;3.20;;;2.97;;
1174;SDS011;576;48.418;10.074;2022-07-29T14:43:06;3.20;;;2.90;;
1174;SDS011;576;48.418;10.074;2022-07-29T14:45:34;3.60;;;3.17;;
1174;SDS011;576;48.418;10.074;2022-07-29T14:48:03;2.50;;;2.30;;
1174;SDS011;576;48.418;10.074;2022-07-29T14:50:31;3.20;;;2.90;;
1174;SDS011;576;48.418;10.074;2022-07-29T14:53:00;4.37;;;3.97;;
1174;SDS011;576;48.418;10.074;2022-07-29T14:55:28;2.90;;;2.70;;
1174;SDS011;576;48.418;10.074;2022-07-29T14:57:59;3.20;;;3.00;;
1174;SDS011;576;48.418;10.074;2022-07-29T15:00:36;4.13;;;3.83;;
1174;SDS011;576;48.418;10.074;2022-07-29T15:03:04;3.57;;;3.27;;
1174;SDS011;576;48.418;10.074;2022-07-29T15:05:36;6.33;;;4.30;;
1174;SDS011;576;48.418;10.074;2022-07-29T15:08:05;4.90;;;3.87;;
1174;SDS011;576;48.418;10.074;2022-07-29T15:10:34;6.57;;;5.00;;
1174;SDS011;576;48.418;10.074;2022-07-29T15:13:04;3.77;;;2.80;;
1174;SDS011;576;48.418;10.074;2022-07-29T15:15:32;5.70;;;5.30;;
1174;SDS011;576;48.418;10.074;2022-07-29T15:18:00;6.40;;;5.60;;
1174;SDS011;576;48.418;10.074;2022-07-29T15:20:28;7.13;;;4.10;;
1174;SDS011;576;48.418;10.074;2022-07-29T15:22:57;7.23;;;6.53;;
1174;SDS011;576;48.418;10.074;2022-07-29T15:25:25;10.67;;;9.77;;
1174;SDS011;576;48.418;10.074;2022-07-29T15:27:53;23.80;;;21.50;;
1174;SDS011;576;48.418;10.074;2022-07-29T15:30:28;30.53;;;28.03;;
1174;SDS011;576;48.418;10.074;2022-07-29T15:33:00;31.57;;;28.60;;
1174;SDS011;576;48.418;10.074;2022-07-29T15:35:28;28.40;;;25.80;;
1174;SDS011;576;48.418;10.074;2022-07-29T15:37:57;23.40;;;21.40;;
1174;SDS011;576;48.418;10.074;2022-07-29T15:40:25;27.57;;;24.80;;
1174;SDS011;576;48.418;10.074;2022-07-29T15:42:53;17.03;;;15.63;;
1174;SDS011;576;48.418;10.074;2022-07-29T15:45:21;14.70;;;13.30;;
1174;SDS011;576;48.418;10.074;2022-07-29T15:47:51;14.73;;;13.43;;
1174;SDS011;576;48.418;10.074;2022-07-29T15:50:19;23.57;;;21.53;;
1174;SDS011;576;48.418;10.074;2022-07-29T15:52:47;25.80;;;23.60;;
1174;SDS011;576;48.418;10.074;2022-07-29T15:55:16;24.30;;;22.27;;